createdAt,value
2019-02-20T00:00:17.728Z,100.40
2019-02-20T00:00:53.267Z,104.90
2019-02-20T00:01:28.583Z,88.67
2019-02-20T00:02:03.924Z,91.10
2019-02-20T00:02:39.330Z,88.97
2019-02-20T00:03:14.785Z,112.65
2019-02-20T00:03:50.263Z,102.00
2019-02-20T00:04:25.546Z,117.90
2019-02-20T00:05:00.866Z,115.57
2019-02-20T00:05:36.324Z,117.45
2019-02-20T00:06:11.728Z,99.00
2019-02-20T00:06:47.071Z,135.75
2019-02-20T00:07:22.388Z,122.07
2019-02-20T00:07:57.708Z,115.08
2019-02-20T00:08:33.029Z,107.87
2019-02-20T00:09:08.708Z,100.02
2019-02-20T00:09:44.308Z,139.70
2019-02-20T00:10:19.703Z,136.80
2019-02-20T00:10:55.128Z,134.65
2019-02-20T00:11:30.578Z,156.57
2019-02-20T00:12:05.909Z,143.68
2019-02-20T00:12:41.924Z,134.80
2019-02-20T00:13:17.394Z,133.60
2019-02-20T00:13:52.976Z,139.47
2019-02-20T00:14:28.424Z,234.05
2019-02-20T00:15:03.717Z,223.82
2019-02-20T00:15:39.071Z,158.18
2019-02-20T00:16:14.372Z,159.50
2019-02-20T00:16:49.824Z,191.75
2019-02-20T00:17:25.112Z,192.25
2019-02-20T00:18:00.644Z,156.40
2019-02-20T00:18:36.083Z,146.32
2019-02-20T00:19:11.524Z,140.03
2019-02-20T00:19:46.948Z,139.37
2019-02-20T00:20:22.458Z,159.05
2019-02-20T00:20:57.803Z,231.65
2019-02-20T00:21:33.234Z,169.62
2019-02-20T00:22:08.601Z,272.45
2019-02-20T00:22:44.109Z,195.47
2019-02-20T00:23:19.422Z,260.75
2019-02-20T00:23:54.812Z,194.10
2019-02-20T00:24:30.135Z,162.80
2019-02-20T00:25:06.029Z,140.07
2019-02-20T00:25:41.737Z,226.30
2019-02-20T00:26:17.094Z,221.35
2019-02-20T00:26:52.507Z,237.68
2019-02-20T00:27:27.806Z,318.02
2019-02-20T00:28:03.174Z,233.38
2019-02-20T00:28:38.816Z,184.43
2019-02-20T00:29:14.144Z,204.95
2019-02-20T00:29:49.668Z,208.50
2019-02-20T00:30:25.245Z,202.82
2019-02-20T00:31:00.829Z,314.77
2019-02-20T00:31:36.345Z,280.45
2019-02-20T00:32:11.729Z,224.37
2019-02-20T00:32:47.320Z,354.10
2019-02-20T00:33:22.745Z,429.75
2019-02-20T00:34:00.489Z,509.67
2019-02-20T00:34:36.065Z,809.13
2019-02-20T00:35:11.413Z,593.30
2019-02-20T00:35:46.864Z,921.30
2019-02-20T00:36:22.657Z,195.65
2019-02-20T00:36:58.012Z,626.95
2019-02-20T00:37:33.364Z,608.75
2019-02-20T00:38:08.887Z,276.27
2019-02-20T00:38:44.484Z,282.65
2019-02-20T00:39:19.985Z,321.50
2019-02-20T00:39:55.453Z,258.30
2019-02-20T00:40:30.927Z,262.52
2019-02-20T00:41:06.412Z,206.82
2019-02-20T00:41:41.725Z,240.20
2019-02-20T00:42:17.306Z,204.78
2019-02-20T00:42:52.709Z,211.07
2019-02-20T00:43:28.172Z,251.27
2019-02-20T00:44:15.137Z,333.02
2019-02-20T00:45:07.794Z,330.02
2019-02-20T00:46:08.712Z,223.00
2019-02-20T00:47:09.331Z,247.82
2019-02-20T00:48:09.852Z,251.82
2019-02-20T00:49:08.705Z,281.57
2019-02-20T00:49:47.178Z,311.68
2019-02-20T00:50:23.632Z,775.72
2019-02-20T00:51:08.244Z,1038.35
2019-02-20T00:52:08.445Z,282.20
2019-02-20T00:52:58.307Z,235.25
2019-02-20T00:53:39.272Z,255.70
2019-02-20T00:54:14.711Z,237.60
2019-02-20T00:54:50.067Z,285.90
2019-02-20T00:55:25.350Z,267.37
2019-02-20T00:56:00.690Z,450.50
2019-02-20T00:56:36.128Z,439.40
2019-02-20T00:57:11.432Z,259.18
2019-02-20T00:57:46.829Z,258.65
2019-02-20T00:58:22.068Z,210.60
2019-02-20T00:58:57.548Z,212.30
2019-02-20T00:59:32.953Z,296.75
2019-02-20T01:00:09.205Z,255.83
2019-02-20T01:00:44.644Z,282.25
2019-02-20T01:01:20.292Z,249.22
2019-02-20T01:01:55.589Z,214.97
2019-02-20T01:02:31.072Z,238.07
2019-02-20T01:03:06.464Z,252.38
2019-02-20T01:03:41.972Z,243.25
2019-02-20T01:04:17.444Z,283.77
2019-02-20T01:04:52.865Z,347.37
2019-02-20T01:05:28.288Z,266.45
2019-02-20T01:06:05.003Z,253.37
2019-02-20T01:06:40.526Z,241.82
2019-02-20T01:07:15.829Z,294.05
2019-02-20T01:07:51.368Z,277.20
2019-02-20T01:08:26.673Z,330.40
2019-02-20T01:09:02.108Z,305.75
2019-02-20T01:09:38.969Z,274.88
2019-02-20T01:10:14.257Z,275.25
2019-02-20T01:10:49.726Z,309.65
2019-02-20T01:11:25.234Z,349.85
2019-02-20T01:12:00.726Z,284.48
2019-02-20T01:12:36.126Z,393.82
2019-02-20T01:13:11.554Z,336.75
2019-02-20T01:13:46.986Z,512.98
2019-02-20T01:14:22.534Z,603.60
2019-02-20T01:14:57.950Z,329.98
2019-02-20T01:15:33.287Z,481.52
2019-02-20T01:16:08.867Z,782.50
2019-02-20T01:16:45.225Z,344.45
2019-02-20T01:17:20.578Z,387.08
2019-02-20T01:17:56.110Z,410.32
2019-02-20T01:18:31.438Z,477.93
2019-02-20T01:19:06.892Z,940.10
2019-02-20T01:19:42.317Z,1462.03
2019-02-20T01:20:17.721Z,1042.08
2019-02-20T01:20:53.154Z,234.12
2019-02-20T01:21:28.745Z,1312.40
2019-02-20T01:22:04.247Z,935.80
2019-02-20T01:22:39.696Z,1489.15
2019-02-20T01:23:15.190Z,1390.05
2019-02-20T01:23:50.628Z,840.83
2019-02-20T01:24:25.992Z,929.72
2019-02-20T01:25:01.657Z,431.78
2019-02-20T01:25:37.069Z,237.90
2019-02-20T01:26:12.471Z,271.73
2019-02-20T01:26:47.916Z,587.20
2019-02-20T01:27:23.459Z,536.23
2019-02-20T01:27:58.868Z,1208.83
2019-02-20T01:28:34.533Z,1277.58
2019-02-20T01:29:09.866Z,821.23
2019-02-20T01:29:45.126Z,784.63
2019-02-20T01:30:20.446Z,1011.40
2019-02-20T01:30:55.815Z,1022.28
2019-02-20T01:31:31.107Z,1156.75
2019-02-20T01:32:06.477Z,547.00
2019-02-20T01:32:41.812Z,391.77
2019-02-20T01:33:17.532Z,354.90
2019-02-20T01:33:53.209Z,579.02
2019-02-20T01:34:28.727Z,691.55
2019-02-20T01:35:04.026Z,283.93
2019-02-20T01:35:39.373Z,569.08
2019-02-20T01:36:14.634Z,202.35
2019-02-20T01:36:49.987Z,526.42
2019-02-20T01:37:25.306Z,446.72
2019-02-20T01:38:00.693Z,895.85
2019-02-20T01:38:36.085Z,194.93
2019-02-20T01:39:11.506Z,294.45
2019-02-20T01:39:47.002Z,547.23
2019-02-20T01:40:22.590Z,378.10
2019-02-20T01:40:58.098Z,525.53
2019-02-20T01:41:33.449Z,328.18
2019-02-20T01:42:08.850Z,388.20
2019-02-20T01:42:44.208Z,345.30
2019-02-20T01:43:19.748Z,533.75
2019-02-20T01:43:55.251Z,526.35
2019-02-20T01:44:30.884Z,328.55
2019-02-20T01:45:06.564Z,233.47
2019-02-20T01:45:41.973Z,353.40
2019-02-20T01:46:17.439Z,379.00
2019-02-20T01:46:53.110Z,381.60
2019-02-20T01:47:28.549Z,755.08
2019-02-20T01:48:03.892Z,862.55
2019-02-20T01:48:39.333Z,421.98
2019-02-20T01:49:14.655Z,737.25
2019-02-20T01:49:50.060Z,375.55
2019-02-20T01:50:25.675Z,226.70
2019-02-20T01:51:01.049Z,269.27
2019-02-20T01:51:36.497Z,285.98
2019-02-20T01:52:12.046Z,305.00
2019-02-20T01:52:47.331Z,258.55
2019-02-20T01:53:22.774Z,318.65
2019-02-20T01:53:58.247Z,260.52
2019-02-20T01:54:33.670Z,291.12
2019-02-20T01:55:09.274Z,287.33
2019-02-20T01:55:44.744Z,301.23
2019-02-20T01:56:20.104Z,321.43
2019-02-20T01:56:57.213Z,314.82
2019-02-20T01:57:32.729Z,298.80
2019-02-20T01:58:08.239Z,305.73
2019-02-20T01:58:43.724Z,283.30
2019-02-20T01:59:19.230Z,479.38
2019-02-20T01:59:54.897Z,327.10
2019-02-20T02:00:30.177Z,322.20
2019-02-20T02:01:05.744Z,274.23
2019-02-20T02:01:41.177Z,292.55
2019-02-20T02:02:16.683Z,285.40
2019-02-20T02:02:52.104Z,300.15
2019-02-20T02:03:27.607Z,250.70
2019-02-20T02:04:03.435Z,283.55
2019-02-20T02:04:38.883Z,295.63
2019-02-20T02:05:15.784Z,299.23
2019-02-20T02:05:51.263Z,267.55
2019-02-20T02:06:26.707Z,281.05
2019-02-20T02:07:01.968Z,264.17
2019-02-20T02:07:37.508Z,297.33
2019-02-20T02:08:12.854Z,329.77
2019-02-20T02:08:48.208Z,271.02
2019-02-20T02:09:23.635Z,254.50
2019-02-20T02:09:59.192Z,254.53
2019-02-20T02:10:34.787Z,273.62
2019-02-20T02:11:10.786Z,278.30
2019-02-20T02:11:46.165Z,264.12
2019-02-20T02:12:21.710Z,285.90
2019-02-20T02:12:57.008Z,276.58
2019-02-20T02:13:32.607Z,269.70
2019-02-20T02:14:08.046Z,266.00
2019-02-20T02:14:43.384Z,291.38
2019-02-20T02:15:20.731Z,270.85
2019-02-20T02:15:56.174Z,225.93
2019-02-20T02:16:31.614Z,256.15
2019-02-20T02:17:07.347Z,266.05
2019-02-20T02:17:42.695Z,259.10
2019-02-20T02:18:18.162Z,258.63
2019-02-20T02:18:53.764Z,288.35
2019-02-20T02:19:29.234Z,288.87
2019-02-20T02:20:04.628Z,360.45
2019-02-20T02:20:39.974Z,435.02
2019-02-20T02:21:15.406Z,452.70
2019-02-20T02:21:50.707Z,454.68
2019-02-20T02:22:26.384Z,490.02
2019-02-20T02:23:01.786Z,561.17
2019-02-20T02:23:37.107Z,487.42
2019-02-20T02:24:12.502Z,287.82
2019-02-20T02:24:48.092Z,294.00
2019-02-20T02:25:23.386Z,343.57
2019-02-20T02:25:58.952Z,564.30
2019-02-20T02:26:34.245Z,386.40
2019-02-20T02:27:09.596Z,360.98
2019-02-20T02:27:45.026Z,363.52
2019-02-20T02:28:20.406Z,321.00
2019-02-20T02:28:55.846Z,417.33
2019-02-20T02:29:31.406Z,514.70
2019-02-20T02:30:07.712Z,361.45
2019-02-20T02:30:43.020Z,321.13
2019-02-20T02:31:18.533Z,445.35
2019-02-20T02:31:54.350Z,319.77
2019-02-20T02:32:29.691Z,557.47
2019-02-20T02:33:05.389Z,453.55
2019-02-20T02:33:40.711Z,545.42
2019-02-20T02:34:16.307Z,850.70
2019-02-20T02:34:51.708Z,486.02
2019-02-20T02:35:27.065Z,377.73
2019-02-20T02:36:02.533Z,240.32
2019-02-20T02:36:37.765Z,255.45
2019-02-20T02:37:13.085Z,284.57
2019-02-20T02:37:48.533Z,307.25
2019-02-20T02:38:23.906Z,411.17
2019-02-20T02:38:59.206Z,427.75
2019-02-20T02:39:34.668Z,351.92
2019-02-20T02:40:10.748Z,574.62
2019-02-20T02:40:46.006Z,626.20
2019-02-20T02:41:21.368Z,898.65
2019-02-20T02:41:56.665Z,361.45
2019-02-20T02:42:32.267Z,278.23
2019-02-20T02:43:07.668Z,285.52
2019-02-20T02:43:42.927Z,398.18
2019-02-20T02:44:18.386Z,335.98
2019-02-20T02:44:54.266Z,267.43
2019-02-20T02:45:29.677Z,381.77
2019-02-20T02:46:05.109Z,532.00
2019-02-20T02:46:40.549Z,733.33
2019-02-20T02:47:16.016Z,1474.75
2019-02-20T02:47:51.729Z,1363.25
2019-02-20T02:48:27.129Z,1389.83
2019-02-20T02:49:02.689Z,784.48
2019-02-20T02:49:38.111Z,1161.05
2019-02-20T02:50:13.409Z,710.13
2019-02-20T02:50:48.869Z,1337.70
2019-02-20T02:51:24.287Z,1333.10
2019-02-20T02:51:59.726Z,419.07
2019-02-20T02:52:35.199Z,1458.65
2019-02-20T02:53:10.589Z,1377.53
2019-02-20T02:53:46.094Z,1276.10
2019-02-20T02:54:21.645Z,1499.95
2019-02-20T02:54:57.104Z,1134.17
2019-02-20T02:55:32.711Z,1019.57
2019-02-20T02:56:08.265Z,514.30
2019-02-20T02:56:43.645Z,418.50
2019-02-20T02:57:19.103Z,480.30
2019-02-20T02:57:54.622Z,547.40
2019-02-20T02:58:29.904Z,529.53
2019-02-20T02:59:05.468Z,948.95
2019-02-20T02:59:40.832Z,447.95
2019-02-20T03:00:16.548Z,815.60
2019-02-20T03:00:54.191Z,656.78
2019-02-20T03:01:29.072Z,836.85
2019-02-20T03:02:04.470Z,1421.28
2019-02-20T03:02:39.904Z,1561.97
2019-02-20T03:03:15.392Z,970.40
2019-02-20T03:03:50.831Z,722.25
2019-02-20T03:04:26.306Z,670.05
2019-02-20T03:05:01.834Z,957.55
2019-02-20T03:05:37.147Z,1204.67
2019-02-20T03:06:12.790Z,1004.87
2019-02-20T03:06:48.326Z,877.43
2019-02-20T03:07:23.635Z,479.80
2019-02-20T03:07:58.884Z,308.10
2019-02-20T03:08:34.224Z,422.05
2019-02-20T03:09:09.951Z,499.55
2019-02-20T03:09:45.660Z,349.25
2019-02-20T03:10:21.109Z,278.73
2019-02-20T03:10:56.429Z,284.85
2019-02-20T03:11:31.764Z,337.77
2019-02-20T03:12:07.204Z,353.80
2019-02-20T03:12:42.687Z,299.92
2019-02-20T03:13:17.991Z,291.75
2019-02-20T03:13:53.363Z,296.77
2019-02-20T03:14:28.618Z,277.57
2019-02-20T03:15:04.125Z,320.70
2019-02-20T03:15:39.464Z,335.60
2019-02-20T03:16:14.704Z,273.62
2019-02-20T03:16:50.103Z,460.15
2019-02-20T03:17:25.584Z,333.65
2019-02-20T03:18:01.004Z,401.95
2019-02-20T03:18:36.463Z,352.80
2019-02-20T03:19:11.764Z,341.05
2019-02-20T03:19:47.326Z,368.50
2019-02-20T03:20:22.786Z,313.98
2019-02-20T03:20:58.133Z,324.48
2019-02-20T03:21:33.668Z,407.58
2019-02-20T03:22:08.924Z,335.23
2019-02-20T03:22:44.466Z,373.70
2019-02-20T03:23:19.786Z,338.73
2019-02-20T03:23:55.289Z,354.48
2019-02-20T03:24:30.824Z,375.05
2019-02-20T03:25:06.245Z,273.10
2019-02-20T03:25:41.804Z,360.50
2019-02-20T03:26:17.124Z,206.80
2019-02-20T03:26:52.906Z,215.35
2019-02-20T03:27:28.286Z,200.72
2019-02-20T03:28:03.646Z,207.47
2019-02-20T03:28:40.220Z,192.37
2019-02-20T03:29:15.704Z,216.02
2019-02-20T03:29:51.079Z,212.78
2019-02-20T03:30:26.485Z,233.00
2019-02-20T03:31:01.945Z,252.78
2019-02-20T03:31:37.354Z,267.68
2019-02-20T03:32:12.789Z,276.30
2019-02-20T03:32:48.308Z,259.52
2019-02-20T03:33:23.645Z,253.98
2019-02-20T03:33:58.947Z,265.95
2019-02-20T03:34:34.269Z,246.30
2019-02-20T03:35:09.826Z,200.65
2019-02-20T03:35:45.286Z,302.48
2019-02-20T03:36:20.686Z,266.48
2019-02-20T03:36:56.007Z,255.47
2019-02-20T03:37:31.366Z,239.53
2019-02-20T03:38:06.766Z,233.23
2019-02-20T03:38:42.163Z,245.05
2019-02-20T03:39:17.664Z,247.20
2019-02-20T03:39:52.964Z,206.70
2019-02-20T03:40:28.306Z,220.57
2019-02-20T03:41:03.872Z,283.77
2019-02-20T03:41:39.464Z,214.68
2019-02-20T03:42:14.923Z,221.00
2019-02-20T03:42:50.330Z,210.70
2019-02-20T03:43:25.830Z,231.00
2019-02-20T03:44:01.204Z,217.00
2019-02-20T03:44:36.734Z,214.27
2019-02-20T03:45:12.153Z,224.35
2019-02-20T03:45:47.586Z,224.15
2019-02-20T03:46:22.905Z,221.37
2019-02-20T03:46:58.344Z,191.80
2019-02-20T03:47:34.185Z,293.52
2019-02-20T03:48:09.512Z,204.00
2019-02-20T03:48:44.885Z,213.12
2019-02-20T03:49:20.234Z,200.43
2019-02-20T03:49:55.784Z,197.13
2019-02-20T03:50:31.031Z,268.50
2019-02-20T03:51:06.350Z,199.40
2019-02-20T03:51:41.767Z,327.38
2019-02-20T03:52:16.893Z,285.45
2019-02-20T03:52:52.364Z,237.00
2019-02-20T03:53:27.783Z,286.07
2019-02-20T03:54:03.264Z,219.25
2019-02-20T03:54:38.685Z,245.33
2019-02-20T03:55:14.094Z,211.18
2019-02-20T03:55:49.388Z,185.28
2019-02-20T03:56:24.912Z,219.53
2019-02-20T03:57:00.609Z,199.80
2019-02-20T03:57:35.904Z,219.50
2019-02-20T03:58:11.333Z,180.20
2019-02-20T03:58:46.666Z,246.05
2019-02-20T03:59:21.944Z,246.32
2019-02-20T03:59:57.483Z,175.65
2019-02-20T04:00:33.124Z,191.00
2019-02-20T04:01:08.732Z,192.20
2019-02-20T04:01:44.152Z,201.45
2019-02-20T04:02:19.526Z,224.35
2019-02-20T04:02:54.846Z,201.58
2019-02-20T04:03:30.184Z,210.60
2019-02-20T04:04:05.624Z,188.93
2019-02-20T04:04:40.924Z,195.57
2019-02-20T04:05:16.452Z,248.90
2019-02-20T04:05:51.683Z,235.88
2019-02-20T04:06:27.085Z,225.28
2019-02-20T04:07:02.664Z,245.30
2019-02-20T04:07:37.964Z,229.38
2019-02-20T04:08:13.223Z,213.25
2019-02-20T04:08:48.632Z,210.00
2019-02-20T04:09:23.992Z,204.80
2019-02-20T04:09:59.463Z,210.72
2019-02-20T04:10:34.903Z,199.68
2019-02-20T04:11:10.243Z,234.12
2019-02-20T04:11:45.684Z,255.95
2019-02-20T04:12:21.123Z,322.93
2019-02-20T04:12:56.796Z,185.73
2019-02-20T04:13:33.232Z,229.75
2019-02-20T04:14:08.525Z,253.47
2019-02-20T04:14:43.945Z,275.90
2019-02-20T04:15:19.512Z,239.68
2019-02-20T04:15:54.954Z,227.57
2019-02-20T04:16:30.363Z,198.40
2019-02-20T04:17:05.772Z,248.32
2019-02-20T04:17:41.104Z,173.60
2019-02-20T04:18:16.430Z,226.55
2019-02-20T04:18:51.888Z,222.88
2019-02-20T04:19:27.687Z,222.07
2019-02-20T04:20:03.147Z,193.15
2019-02-20T04:20:38.587Z,197.95
2019-02-20T04:21:13.952Z,203.02
2019-02-20T04:21:49.628Z,215.40
2019-02-20T04:22:24.986Z,212.35
2019-02-20T04:23:00.449Z,187.30
2019-02-20T04:23:35.948Z,186.65
2019-02-20T04:24:11.336Z,189.87
2019-02-20T04:24:47.029Z,229.70
2019-02-20T04:25:22.548Z,233.25
2019-02-20T04:25:58.076Z,350.40
2019-02-20T04:26:33.684Z,299.23
2019-02-20T04:27:09.271Z,195.53
2019-02-20T04:27:45.229Z,232.25
2019-02-20T04:28:20.564Z,295.30
2019-02-20T04:28:55.805Z,231.47
2019-02-20T04:29:31.164Z,267.43
2019-02-20T04:30:07.266Z,244.13
2019-02-20T04:30:42.745Z,216.80
2019-02-20T04:31:18.075Z,213.03
2019-02-20T04:31:53.646Z,223.70
2019-02-20T04:32:29.463Z,202.82
2019-02-20T04:33:04.956Z,223.00
2019-02-20T04:33:40.369Z,207.77
2019-02-20T04:34:16.047Z,206.78
2019-02-20T04:34:51.531Z,231.40
2019-02-20T04:35:27.024Z,212.60
2019-02-20T04:36:02.547Z,220.42
2019-02-20T04:36:37.946Z,240.68
2019-02-20T04:37:13.546Z,251.95
2019-02-20T04:37:48.868Z,284.77
2019-02-20T04:38:24.406Z,229.95
2019-02-20T04:38:59.688Z,245.40
2019-02-20T04:39:35.026Z,241.20
2019-02-20T04:40:10.549Z,219.40
2019-02-20T04:40:46.028Z,235.68
2019-02-20T04:41:21.526Z,231.07
2019-02-20T04:41:56.857Z,226.80
2019-02-20T04:42:32.386Z,223.20
2019-02-20T04:43:07.846Z,222.25
2019-02-20T04:43:43.124Z,235.88
2019-02-20T04:44:18.484Z,203.90
2019-02-20T04:44:53.866Z,213.70
2019-02-20T04:45:29.136Z,210.90
2019-02-20T04:46:04.644Z,209.95
2019-02-20T04:46:40.099Z,220.80
2019-02-20T04:47:15.406Z,217.37
2019-02-20T04:47:51.109Z,224.18
2019-02-20T04:48:26.466Z,203.12
2019-02-20T04:49:01.921Z,249.27
2019-02-20T04:49:37.305Z,216.00
2019-02-20T04:50:12.875Z,261.52
2019-02-20T04:50:48.304Z,227.28
2019-02-20T04:51:23.728Z,230.27
2019-02-20T04:51:59.236Z,210.50
2019-02-20T04:52:34.485Z,210.68
2019-02-20T04:53:10.005Z,225.62
2019-02-20T04:53:45.445Z,200.25
2019-02-20T04:54:20.764Z,192.10
2019-02-20T04:54:56.072Z,207.40
2019-02-20T04:55:31.564Z,196.28
2019-02-20T04:56:06.925Z,194.40
2019-02-20T04:56:42.240Z,214.78
2019-02-20T04:57:17.932Z,272.33
2019-02-20T04:58:14.959Z,277.05
2019-02-20T04:58:54.814Z,262.45
2019-02-20T04:59:30.644Z,308.82
2019-02-20T05:00:07.527Z,341.73
2019-02-20T05:00:43.469Z,209.32
2019-02-20T05:01:18.766Z,213.85
2019-02-20T05:01:54.146Z,253.60
2019-02-20T05:02:29.461Z,229.25
2019-02-20T05:03:04.987Z,250.32
2019-02-20T05:03:40.333Z,256.47
2019-02-20T05:04:15.735Z,221.82
2019-02-20T05:04:51.153Z,235.32
2019-02-20T05:05:26.611Z,231.80
2019-02-20T05:06:02.021Z,317.48
2019-02-20T05:06:37.385Z,313.37
2019-02-20T05:07:12.914Z,204.13
2019-02-20T05:07:48.344Z,250.50
2019-02-20T05:08:24.057Z,241.27
2019-02-20T05:08:59.569Z,221.10
2019-02-20T05:09:35.004Z,225.22
2019-02-20T05:10:11.299Z,223.82
2019-02-20T05:10:46.815Z,217.30
2019-02-20T05:11:22.292Z,188.50
2019-02-20T05:11:57.749Z,204.45
2019-02-20T05:12:33.049Z,220.07
2019-02-20T05:13:08.411Z,218.52
2019-02-20T05:13:43.729Z,202.50
2019-02-20T05:14:19.671Z,214.23
2019-02-20T05:14:55.006Z,217.13
2019-02-20T05:15:30.447Z,226.88
2019-02-20T05:16:05.726Z,188.93
2019-02-20T05:16:41.085Z,188.32
2019-02-20T05:17:16.444Z,199.93
2019-02-20T05:17:51.769Z,174.62
2019-02-20T05:18:27.168Z,156.95
2019-02-20T05:19:02.605Z,184.40
2019-02-20T05:19:37.926Z,199.62
2019-02-20T05:20:13.365Z,182.60
2019-02-20T05:20:48.890Z,192.55
2019-02-20T05:21:24.606Z,220.93
2019-02-20T05:22:00.168Z,201.10
2019-02-20T05:22:35.505Z,155.03
2019-02-20T05:23:11.054Z,182.22
2019-02-20T05:23:46.367Z,184.70
2019-02-20T05:24:24.715Z,172.70
2019-02-20T05:24:58.886Z,163.95
2019-02-20T05:25:34.264Z,173.38
2019-02-20T05:26:10.028Z,149.27
2019-02-20T05:26:45.369Z,156.12
2019-02-20T05:27:20.777Z,193.28
2019-02-20T05:27:56.075Z,181.95
2019-02-20T05:28:31.348Z,195.77
2019-02-20T05:29:06.771Z,190.35
2019-02-20T05:29:42.252Z,164.88
2019-02-20T05:30:17.772Z,137.92
2019-02-20T05:30:53.296Z,150.87
2019-02-20T05:31:28.640Z,145.32
2019-02-20T05:32:04.309Z,166.85
2019-02-20T05:32:40.440Z,141.00
2019-02-20T05:33:16.119Z,139.82
2019-02-20T05:33:51.812Z,153.02
2019-02-20T05:34:27.214Z,172.78
2019-02-20T05:35:02.536Z,154.80
2019-02-20T05:35:37.975Z,146.70
2019-02-20T05:36:13.286Z,152.72
2019-02-20T05:36:48.847Z,159.90
2019-02-20T05:37:24.155Z,160.65
2019-02-20T05:37:59.648Z,168.30
2019-02-20T05:38:34.926Z,141.40
2019-02-20T05:39:10.310Z,173.75
2019-02-20T05:39:45.778Z,169.82
2019-02-20T05:40:21.211Z,139.00
2019-02-20T05:40:56.516Z,175.80
2019-02-20T05:41:32.068Z,134.67
2019-02-20T05:42:07.374Z,157.00
2019-02-20T05:42:42.846Z,160.40
2019-02-20T05:43:18.206Z,143.17
2019-02-20T05:43:53.547Z,137.45
2019-02-20T05:44:29.070Z,119.00
2019-02-20T05:45:04.337Z,121.92
2019-02-20T05:45:40.266Z,128.85
2019-02-20T05:46:15.631Z,127.38
2019-02-20T05:46:51.047Z,112.62
2019-02-20T05:47:26.346Z,95.07
2019-02-20T05:48:01.809Z,113.88
2019-02-20T05:48:37.526Z,125.78
2019-02-20T05:49:12.947Z,113.62
2019-02-20T05:49:48.347Z,101.18
2019-02-20T05:50:23.790Z,114.82
2019-02-20T05:50:59.206Z,101.87
2019-02-20T05:51:34.627Z,134.57
2019-02-20T05:52:10.031Z,105.83
2019-02-20T05:52:45.305Z,98.78
2019-02-20T05:53:20.670Z,109.97
2019-02-20T05:53:56.074Z,100.15
2019-02-20T05:54:34.465Z,94.50
2019-02-20T05:55:08.516Z,98.55
2019-02-20T05:55:43.894Z,106.27
2019-02-20T05:56:19.209Z,118.08
2019-02-20T05:56:54.468Z,108.72
2019-02-20T05:57:29.808Z,93.35
2019-02-20T05:58:05.330Z,109.12
2019-02-20T05:58:40.669Z,112.92
2019-02-20T05:59:15.989Z,120.08
2019-02-20T05:59:51.353Z,113.35
2019-02-20T06:00:26.845Z,105.75
2019-02-20T06:01:02.228Z,113.60
2019-02-20T06:01:37.580Z,120.13
2019-02-20T06:02:12.958Z,113.50
2019-02-20T06:02:48.372Z,115.72
2019-02-20T06:03:23.787Z,118.97
2019-02-20T06:03:59.290Z,123.18
2019-02-20T06:04:34.626Z,126.50
2019-02-20T06:05:10.069Z,114.55
2019-02-20T06:05:45.385Z,124.33
2019-02-20T06:06:20.848Z,120.15
2019-02-20T06:06:56.130Z,115.80
2019-02-20T06:07:31.491Z,102.62
2019-02-20T06:08:06.901Z,108.67
2019-02-20T06:08:42.207Z,123.10
2019-02-20T06:09:17.602Z,113.90
2019-02-20T06:09:53.149Z,119.57
2019-02-20T06:10:28.680Z,103.38
2019-02-20T06:11:14.416Z,118.05
2019-02-20T06:11:41.074Z,117.72
2019-02-20T06:12:16.388Z,120.00
2019-02-20T06:12:51.855Z,123.82
2019-02-20T06:13:27.089Z,126.70
2019-02-20T06:14:02.906Z,97.78
2019-02-20T06:14:38.386Z,121.22
2019-02-20T06:15:14.049Z,124.30
2019-02-20T06:15:49.349Z,123.33
2019-02-20T06:16:24.788Z,131.50
2019-02-20T06:17:00.244Z,123.25
2019-02-20T06:17:35.711Z,104.95
2019-02-20T06:18:11.028Z,125.72
2019-02-20T06:18:46.528Z,123.90
2019-02-20T06:19:21.828Z,116.20
2019-02-20T06:19:57.288Z,113.88
2019-02-20T06:20:32.625Z,103.67
2019-02-20T06:21:08.144Z,108.87
2019-02-20T06:21:43.507Z,109.45
2019-02-20T06:22:18.884Z,106.80
2019-02-20T06:22:54.321Z,114.77
2019-02-20T06:23:29.864Z,107.35
2019-02-20T06:24:05.428Z,99.67
2019-02-20T06:24:44.042Z,96.65
2019-02-20T06:25:17.694Z,93.30
2019-02-20T06:25:53.132Z,89.03
2019-02-20T06:26:28.552Z,84.62
2019-02-20T06:27:04.116Z,87.27
2019-02-20T06:27:39.534Z,91.50
2019-02-20T06:28:14.928Z,88.35
2019-02-20T06:28:50.766Z,77.60
2019-02-20T06:29:26.193Z,91.45
2019-02-20T06:30:01.456Z,79.27
2019-02-20T06:30:36.955Z,93.07
2019-02-20T06:31:12.407Z,91.60
2019-02-20T06:31:47.868Z,79.85
2019-02-20T06:32:24.149Z,86.02
2019-02-20T06:33:00.145Z,85.47
2019-02-20T06:33:35.583Z,88.87
2019-02-20T06:34:10.972Z,90.70
2019-02-20T06:34:46.488Z,88.55
2019-02-20T06:35:21.809Z,85.25
2019-02-20T06:35:57.246Z,85.20
2019-02-20T06:36:32.508Z,83.07
2019-02-20T06:37:08.307Z,84.50
2019-02-20T06:37:43.714Z,68.87
2019-02-20T06:38:19.221Z,86.45
2019-02-20T06:38:54.607Z,79.80
2019-02-20T06:39:30.449Z,77.20
2019-02-20T06:40:06.044Z,74.07
2019-02-20T06:40:41.481Z,78.00
2019-02-20T06:41:17.088Z,83.87
2019-02-20T06:41:52.548Z,75.50
2019-02-20T06:42:27.845Z,69.20
2019-02-20T06:43:03.286Z,80.32
2019-02-20T06:43:38.806Z,78.78
2019-02-20T06:44:14.166Z,76.37
2019-02-20T06:44:49.748Z,88.72
2019-02-20T06:45:25.411Z,88.95
2019-02-20T06:46:00.793Z,68.28
2019-02-20T06:46:36.266Z,73.67
2019-02-20T06:47:11.610Z,75.60
2019-02-20T06:47:47.188Z,71.80
2019-02-20T06:48:22.816Z,81.97
2019-02-20T06:48:58.309Z,81.63
2019-02-20T06:49:33.708Z,73.83
2019-02-20T06:50:09.224Z,79.90
2019-02-20T06:50:44.584Z,73.45
2019-02-20T06:51:20.044Z,75.22
2019-02-20T06:51:55.431Z,72.12
2019-02-20T06:52:30.788Z,75.30
2019-02-20T06:53:06.264Z,60.23
2019-02-20T06:53:41.524Z,77.12
2019-02-20T06:54:17.350Z,78.17
2019-02-20T06:54:54.147Z,76.85
2019-02-20T06:55:30.073Z,64.25
2019-02-20T06:56:05.391Z,74.15
2019-02-20T06:56:40.833Z,76.40
2019-02-20T06:57:16.125Z,72.97
2019-02-20T06:57:51.366Z,69.20
2019-02-20T06:58:26.909Z,71.37
2019-02-20T06:59:02.484Z,60.48
2019-02-20T06:59:38.044Z,67.42
2019-02-20T07:00:14.910Z,66.65
2019-02-20T07:00:50.497Z,66.30
2019-02-20T07:01:25.930Z,70.05
2019-02-20T07:02:01.277Z,73.42
2019-02-20T07:02:36.670Z,60.48
2019-02-20T07:03:11.994Z,66.17
2019-02-20T07:03:47.414Z,60.33
2019-02-20T07:04:22.774Z,69.90
2019-02-20T07:05:47.452Z,70.10
2019-02-20T07:06:50.472Z,64.47
2019-02-20T07:07:50.006Z,64.95
2019-02-20T07:09:17.178Z,68.72
2019-02-20T07:10:35.284Z,60.08
2019-02-20T07:11:54.149Z,67.42
2019-02-20T07:13:03.058Z,65.40
2019-02-20T07:14:06.638Z,65.65
2019-02-20T07:15:05.239Z,61.40
2019-02-20T07:16:12.198Z,57.75
2019-02-20T07:17:12.632Z,67.37
2019-02-20T07:18:13.137Z,62.55
2019-02-20T07:19:09.452Z,60.60
2019-02-20T07:20:16.824Z,63.00
2019-02-20T07:21:45.925Z,68.60
2019-02-20T07:23:02.403Z,59.40
2019-02-20T07:24:22.076Z,60.08
2019-02-20T07:25:27.265Z,62.98
2019-02-20T07:26:35.121Z,61.18
2019-02-20T07:27:45.639Z,53.05
2019-02-20T07:29:13.396Z,49.15
2019-02-20T07:30:05.759Z,46.37
2019-02-20T07:30:41.064Z,68.20
2019-02-20T07:31:16.519Z,63.33
2019-02-20T07:31:51.838Z,52.35
2019-02-20T07:32:27.247Z,66.33
2019-02-20T07:33:02.864Z,60.08
2019-02-20T07:33:38.150Z,60.80
2019-02-20T07:34:13.624Z,52.80
2019-02-20T07:34:49.349Z,61.63
2019-02-20T07:35:24.819Z,56.83
2019-02-20T07:36:00.164Z,53.60
2019-02-20T07:36:35.570Z,58.85
2019-02-20T07:37:11.210Z,57.90
2019-02-20T07:37:46.575Z,67.05
2019-02-20T07:38:22.089Z,57.43
2019-02-20T07:38:57.433Z,52.65
2019-02-20T07:39:32.825Z,56.23
2019-02-20T07:40:10.146Z,56.65
2019-02-20T07:40:45.426Z,52.78